Time;durP1;ratioP1;P1;durP2;ratioP2;P2;SDS_P1;SDS_P2;PMS_P1;PMS_P2;Temp;Humidity;BMP_temperature;BMP_pressure;BME280_temperature;BME280_humidity;BME280_pressure;Samples;Min_cycle;Max_cycle;Signal;HPM_P1;HPM_P2
2022/12/15 00:40:58;;;;;;;5.63;5.33;;;18.60;32.50;;;;;;4999271;28;20847;-59
2022/12/15 00:43:25;;;;;;;5.10;4.80;;;18.60;32.40;;;;;;5000974;28;20423;-59
2022/12/15 00:48:34;;;;;;;5.60;5.20;;;18.60;32.40;;;;;;4999156;28;20458;-59
2022/12/15 00:51:00;;;;;;;5.10;4.80;;;18.60;32.40;;;;;;5002186;28;21007;-59
2022/12/15 01:21:01;;;;;;;5.50;5.13;;;18.60;32.40;;;;;;5004390;28;20433;-59
2022/12/15 01:23:27;;;;;;;5.37;5.07;;;18.60;32.50;;;;;;5001000;28;20510;-59
2022/12/15 01:25:53;;;;;;;5.13;4.83;;;18.60;32.50;;;;;;4985345;28;20829;-59
2022/12/15 01:28:20;;;;;;;5.10;4.80;;;18.60;32.40;;;;;;4982449;28;20232;-59
2022/12/15 01:30:46;;;;;;;5.60;5.30;;;18.60;32.40;;;;;;4985432;28;20424;-59
2022/12/15 01:33:13;;;;;;;5.10;4.80;;;18.60;32.40;;;;;;4984677;28;20475;-59
2022/12/15 01:35:39;;;;;;;5.33;5.00;;;18.60;32.50;;;;;;4982243;28;20466;-59
2022/12/15 01:38:04;;;;;;;5.37;5.07;;;18.60;32.40;;;;;;4984505;28;20528;-59
2022/12/15 01:40:46;;;;;;;5.83;5.43;;;18.60;32.40;;;;;;4984029;28;20224;-59
2022/12/15 01:43:14;;;;;;;5.30;4.90;;;18.60;32.40;;;;;;4987963;28;20282;-60
2022/12/15 01:45:51;;;;;;;5.70;5.40;;;18.60;32.50;;;;;;4987822;28;20929;-59
2022/12/15 01:48:27;;;;;;;5.40;5.07;;;18.60;32.40;;;;;;4979509;28;20441;-59
2022/12/15 01:51:02;;;;;;;5.50;5.20;;;18.50;32.40;;;;;;4992761;28;20501;-59
2022/12/15 01:53:33;;;;;;;5.53;5.13;;;18.60;32.40;;;;;;4990982;28;20427;-59
2022/12/15 01:55:59;;;;;;;5.93;5.63;;;18.50;32.30;;;;;;4982347;28;20444;-59
2022/12/15 01:58:26;;;;;;;5.77;5.37;;;18.60;32.40;;;;;;4982731;28;20489;-59
2022/12/15 02:00:51;;;;;;;5.50;5.10;;;18.60;32.40;;;;;;4991543;28;20416;-60
2022/12/15 02:03:17;;;;;;;4.73;4.53;;;18.60;32.40;;;;;;4983716;28;20420;-60
2022/12/15 02:05:44;;;;;;;5.53;5.13;;;18.60;32.40;;;;;;5000180;28;20224;-59
2022/12/15 02:08:10;;;;;;;5.37;4.87;;;18.60;32.40;;;;;;4985562;28;20458;-62
2022/12/15 02:10:50;;;;;;;5.40;5.07;;;18.60;32.40;;;;;;4982985;28;20439;-59
2022/12/15 02:13:24;;;;;;;4.83;4.53;;;18.60;32.40;;;;;;4999010;28;20323;-59
2022/12/15 02:16:04;;;;;;;5.83;5.33;;;18.60;32.40;;;;;;4982002;28;20446;-60
2022/12/15 02:18:50;;;;;;;5.03;4.73;;;18.60;32.50;;;;;;4979190;28;20436;-59
2022/12/15 02:21:27;;;;;;;5.27;4.97;;;18.60;32.40;;;;;;5024295;23;20461;-79
2022/12/15 02:24:32;;;;;;;4.80;4.43;;;18.50;32.30;;;;;;5017515;28;20483;-78
2022/12/15 02:27:29;;;;;;;4.90;4.60;;;18.50;32.30;;;;;;5019352;28;20434;-79
2022/12/15 02:30:08;;;;;;;4.63;4.43;;;18.50;32.40;;;;;;5039425;28;20484;-79
2022/12/15 02:32:58;;;;;;;5.50;5.20;;;18.50;32.30;;;;;;5039304;28;20469;-79
2022/12/15 02:35:32;;;;;;;5.00;4.70;;;18.50;32.30;;;;;;5036320;28;20478;-77
2022/12/15 02:37:58;;;;;;;5.60;5.20;;;18.50;32.30;;;;;;5038326;28;20440;-76
2022/12/15 02:40:23;;;;;;;5.17;4.87;;;18.50;32.30;;;;;;5021323;28;20515;-77
2022/12/15 02:42:51;;;;;;;5.47;5.07;;;18.50;32.30;;;;;;5039144;28;20241;-77
2022/12/15 02:45:33;;;;;;;5.67;5.37;;;18.50;32.30;;;;;;5037875;28;20222;-77
2022/12/15 02:48:19;;;;;;;4.53;4.23;;;18.50;32.30;;;;;;5040484;28;20458;-77
2022/12/15 02:51:03;;;;;;;4.80;4.50;;;18.50;32.30;;;;;;5036981;28;20430;-77
2022/12/15 02:53:50;;;;;;;5.10;4.80;;;18.50;32.30;;;;;;5037872;28;20439;-77
2022/12/15 02:56:19;;;;;;;5.03;4.70;;;18.50;32.40;;;;;;5035112;28;21857;-77
2022/12/15 02:58:56;;;;;;;5.23;4.83;;;18.50;32.30;;;;;;5020794;28;20679;-77
2022/12/15 03:01:36;;;;;;;5.00;4.60;;;18.50;32.30;;;;;;5037595;28;20814;-77
2022/12/15 03:04:04;;;;;;;5.23;4.83;;;18.50;32.30;;;;;;5021313;28;20923;-77
2022/12/15 03:06:30;;;;;;;5.77;4.90;;;18.50;32.30;;;;;;5038378;28;20483;-76
2022/12/15 03:08:55;;;;;;;5.03;4.73;;;18.50;32.30;;;;;;5038239;28;20976;-76
2022/12/15 03:11:21;;;;;;;5.17;4.77;;;18.60;32.40;;;;;;5033226;28;20680;-77
2022/12/15 03:13:47;;;;;;;6.03;5.53;;;18.50;32.40;;;;;;5036623;28;20614;-77
2022/12/15 03:16:12;;;;;;;4.87;4.57;;;18.50;32.30;;;;;;5035931;28;20234;-77
2022/12/15 03:18:38;;;;;;;4.97;4.57;;;18.50;32.30;;;;;;5035874;28;20321;-76
2022/12/15 03:21:04;;;;;;;4.70;4.40;;;18.50;32.30;;;;;;5016899;28;20239;-72
2022/12/15 03:23:30;;;;;;;5.37;5.07;;;18.50;32.30;;;;;;5040483;28;21421;-75
2022/12/15 03:25:55;;;;;;;5.03;4.73;;;18.50;32.30;;;;;;5037603;28;20230;-76
2022/12/15 03:28:22;;;;;;;4.40;4.13;;;18.50;32.30;;;;;;5020131;28;20247;-76
2022/12/15 03:30:48;;;;;;;5.40;5.00;;;18.50;32.30;;;;;;5019310;28;20230;-76
2022/12/15 03:33:13;;;;;;;5.00;4.70;;;18.50;32.30;;;;;;5038787;28;20451;-76
2022/12/15 03:35:39;;;;;;;5.40;5.07;;;18.50;32.30;;;;;;5038405;28;20464;-76
2022/12/15 03:38:04;;;;;;;5.60;4.70;;;18.50;32.30;;;;;;5039564;28;20279;-76
2022/12/15 03:40:30;;;;;;;5.57;5.17;;;18.50;32.30;;;;;;5036038;28;20222;-77
2022/12/15 03:42:57;;;;;;;5.07;4.77;;;18.50;32.30;;;;;;5037834;28;20207;-76
2022/12/15 03:45:25;;;;;;;4.80;4.47;;;18.50;32.30;;;;;;5017076;28;20218;-77
2022/12/15 03:47:51;;;;;;;5.97;5.07;;;18.50;32.30;;;;;;5033883;28;20434;-76
2022/12/15 03:50:21;;;;;;;5.10;4.80;;;18.50;32.30;;;;;;5032864;28;21445;-76
2022/12/15 03:52:57;;;;;;;5.47;5.17;;;18.50;32.30;;;;;;5018758;28;20429;-76
2022/12/15 03:55:23;;;;;;;4.93;4.57;;;18.50;32.30;;;;;;5036582;28;20437;-76
2022/12/15 03:57:49;;;;;;;4.97;4.67;;;18.50;32.30;;;;;;5018787;28;20539;-77
2022/12/15 04:00:16;;;;;;;5.20;4.80;;;18.50;32.40;;;;;;5036719;28;20811;-77
2022/12/15 04:02:42;;;;;;;5.20;4.80;;;18.50;32.30;;;;;;5039748;28;20222;-77
2022/12/15 04:05:16;;;;;;;5.13;4.83;;;18.50;32.30;;;;;;5039525;28;20429;-77
2022/12/15 04:07:42;;;;;;;5.63;5.23;;;18.50;32.30;;;;;;5035068;28;20206;-77
2022/12/15 04:10:07;;;;;;;5.10;4.70;;;18.50;32.30;;;;;;5040813;28;20475;-77
2022/12/15 04:12:33;;;;;;;5.20;4.90;;;18.50;32.30;;;;;;5015808;28;20282;-76
2022/12/15 04:14:58;;;;;;;5.20;4.90;;;18.50;32.30;;;;;;5037996;28;20241;-77
2022/12/15 04:17:24;;;;;;;6.80;6.20;;;18.50;32.30;;;;;;5038786;28;20227;-77
2022/12/15 04:20:08;;;;;;;4.60;4.30;;;18.50;32.30;;;;;;5038580;28;20218;-77
2022/12/15 04:22:43;;;;;;;4.40;4.20;;;18.50;32.40;;;;;;5039531;28;21131;-77
2022/12/15 05:33:54;;;;;;;5.20;4.80;;;18.60;32.50;;;;;;5031392;28;20440;-75
2022/12/15 05:36:20;;;;;;;4.93;4.63;;;18.60;32.40;;;;;;5020611;28;20517;-75
2022/12/15 05:38:50;;;;;;;5.03;4.67;;;18.60;33.20;;;;;;5018805;28;20430;-74
2022/12/15 05:41:17;;;;;;;5.53;5.23;;;18.60;32.40;;;;;;5036679;28;21969;-71
2022/12/15 05:43:42;;;;;;;5.60;5.30;;;18.60;32.40;;;;;;5035509;28;20451;-76
2022/12/15 05:46:08;;;;;;;4.57;4.33;;;18.60;32.50;;;;;;5033474;28;20809;-75
2022/12/15 05:48:34;;;;;;;4.50;4.20;;;18.60;32.40;;;;;;5019651;28;20256;-75
2022/12/15 05:51:07;;;;;;;5.43;5.13;;;18.60;32.40;;;;;;5037079;28;20222;-75
2022/12/15 05:53:34;;;;;;;5.20;4.90;;;18.60;32.50;;;;;;5023570;28;20226;-76
2022/12/15 05:56:01;;;;;;;5.30;5.00;;;18.60;32.40;;;;;;5036777;28;20449;-75
2022/12/15 05:58:27;;;;;;;7.90;5.33;;;18.60;32.40;;;;;;5034709;28;21148;-76
2022/12/15 06:00:52;;;;;;;5.23;4.80;;;18.60;32.40;;;;;;5038263;28;20526;-77
2022/12/15 06:03:18;;;;;;;5.03;4.63;;;18.60;33.20;;;;;;5020927;28;20214;-77
2022/12/15 06:05:43;;;;;;;6.10;4.47;;;18.60;32.40;;;;;;5039995;28;20234;-77
2022/12/15 06:08:09;;;;;;;5.00;4.53;;;18.60;32.40;;;;;;5041176;28;20875;-76
2022/12/15 06:10:34;;;;;;;4.97;4.57;;;18.60;32.40;;;;;;5039805;28;20221;-77
2022/12/15 06:13:00;;;;;;;4.73;4.33;;;18.60;32.50;;;;;;5038647;28;20265;-74
2022/12/15 06:15:26;;;;;;;5.07;4.67;;;18.70;32.60;;;;;;5038012;28;20663;-74
2022/12/15 06:17:54;;;;;;;4.77;4.47;;;18.70;32.60;;;;;;5038524;28;20595;-75
2022/12/15 06:20:20;;;;;;;5.03;4.63;;;18.70;32.50;;;;;;5041837;28;20218;-74
2022/12/15 06:22:45;;;;;;;4.83;4.50;;;18.70;32.50;;;;;;5039429;28;20429;-74
2022/12/15 06:25:11;;;;;;;4.40;4.10;;;18.70;32.60;;;;;;5026790;28;20321;-75
2022/12/15 06:27:36;;;;;;;5.03;4.60;;;18.70;32.60;;;;;;5013722;28;20218;-76
2022/12/15 06:30:02;;;;;;;4.80;4.50;;;18.70;32.60;;;;;;5037591;28;20248;-77
2022/12/15 06:32:28;;;;;;;4.77;4.40;;;18.70;32.60;;;;;;5021697;28;20680;-75
2022/12/15 06:34:53;;;;;;;5.07;4.60;;;18.70;32.50;;;;;;5037172;28;20229;-77
2022/12/15 06:37:19;;;;;;;6.70;6.10;;;18.70;32.50;;;;;;5038647;28;20218;-78
2022/12/15 06:39:44;;;;;;;4.57;4.27;;;18.80;32.60;;;;;;5039275;28;20213;-77
2022/12/15 06:42:10;;;;;;;4.87;4.60;;;18.80;32.60;;;;;;5019002;28;21038;-77
2022/12/15 06:44:35;;;;;;;4.50;4.30;;;18.80;32.70;;;;;;5023132;28;20218;-77
2022/12/15 06:47:01;;;;;;;4.87;4.50;;;18.80;32.60;;;;;;5038354;28;20222;-77
2022/12/15 06:49:26;;;;;;;4.33;4.07;;;18.80;32.60;;;;;;5034281;28;20347;-77
2022/12/15 06:51:52;;;;;;;4.60;4.27;;;18.80;32.60;;;;;;5033351;28;20818;-77
2022/12/15 06:54:17;;;;;;;4.30;4.10;;;18.80;32.60;;;;;;5035395;28;20210;-77
2022/12/15 06:56:43;;;;;;;5.00;4.70;;;18.80;32.60;;;;;;5020663;28;20226;-76
2022/12/15 06:59:10;;;;;;;5.00;4.50;;;18.80;32.60;;;;;;5038057;28;20700;-74
2022/12/15 07:01:35;;;;;;;4.40;4.10;;;18.80;32.60;;;;;;5017295;28;20359;-75
2022/12/15 07:04:04;;;;;;;4.67;4.47;;;18.80;32.60;;;;;;5033286;28;20421;-76
2022/12/15 07:06:36;;;;;;;5.10;4.70;;;18.80;32.60;;;;;;5032759;28;20298;-76
2022/12/15 07:09:02;;;;;;;5.73;5.20;;;18.80;32.60;;;;;;5036455;28;20418;-76
2022/12/15 07:11:28;;;;;;;4.93;4.63;;;18.80;32.60;;;;;;5036023;28;20485;-75
2022/12/15 07:13:54;;;;;;;6.33;5.30;;;18.80;32.60;;;;;;5037150;28;20504;-75
2022/12/15 07:16:21;;;;;;;4.43;4.23;;;18.80;32.70;;;;;;5034106;28;20250;-76
2022/12/15 07:18:47;;;;;;;4.57;4.27;;;18.80;32.70;;;;;;5033507;28;20441;-75
2022/12/15 07:21:13;;;;;;;4.53;4.27;;;18.80;32.70;;;;;;5031916;28;20918;-76
2022/12/15 07:23:38;;;;;;;5.10;4.80;;;18.80;32.80;;;;;;5031389;28;20305;-75
2022/12/15 07:26:06;;;;;;;4.97;4.57;;;18.80;32.80;;;;;;5017181;28;20276;-76
2022/12/15 07:28:32;;;;;;;4.97;4.67;;;18.90;33.00;;;;;;5034526;28;20748;-75
2022/12/15 07:31:06;;;;;;;4.70;4.50;;;18.80;32.90;;;;;;5034927;28;20470;-76
2022/12/15 07:33:32;;;;;;;4.67;4.43;;;18.80;32.90;;;;;;5033943;28;20939;-76
2022/12/15 07:35:59;;;;;;;4.93;4.63;;;18.90;33.00;;;;;;5039294;28;20454;-76
2022/12/15 07:38:26;;;;;;;6.10;5.60;;;18.90;33.00;;;;;;5038089;28;21052;-76
2022/12/15 07:40:51;;;;;;;4.80;4.60;;;18.90;33.00;;;;;;5020425;28;20429;-75
2022/12/15 07:43:17;;;;;;;4.37;4.17;;;18.90;33.00;;;;;;5036980;28;20444;-76
2022/12/15 07:45:42;;;;;;;4.40;4.10;;;18.80;33.00;;;;;;5037348;28;20226;-75
2022/12/15 07:48:08;;;;;;;5.73;5.30;;;18.90;33.10;;;;;;5037100;28;20210;-76
2022/12/15 07:50:36;;;;;;;5.87;5.27;;;18.80;33.10;;;;;;5022079;28;20227;-76
2022/12/15 07:53:02;;;;;;;5.00;4.70;;;18.90;33.10;;;;;;5035862;28;20225;-76
2022/12/15 07:55:27;;;;;;;4.80;4.40;;;18.90;33.10;;;;;;5034488;28;20936;-76
2022/12/15 07:57:53;;;;;;;4.63;4.33;;;18.90;33.10;;;;;;5014850;28;21417;-76
2022/12/15 08:00:18;;;;;;;4.83;4.57;;;18.90;33.00;;;;;;5024951;28;20218;-76
2022/12/15 08:02:44;;;;;;;5.33;4.93;;;18.90;33.10;;;;;;5019732;28;20215;-76
2022/12/15 08:05:09;;;;;;;5.70;5.20;;;18.90;33.10;;;;;;5021933;28;20633;-76
2022/12/15 08:07:35;;;;;;;4.53;4.30;;;18.90;33.10;;;;;;5038575;28;20795;-77
2022/12/15 08:10:00;;;;;;;4.93;4.63;;;18.90;33.10;;;;;;5018968;28;20702;-76
2022/12/15 08:12:27;;;;;;;5.20;4.80;;;18.90;33.10;;;;;;5032557;28;20648;-76
2022/12/15 08:14:53;;;;;;;5.60;5.20;;;18.90;33.10;;;;;;5034495;28;20247;-76
2022/12/15 08:17:18;;;;;;;4.83;4.53;;;18.90;33.00;;;;;;5017847;28;20497;-76
2022/12/15 08:19:44;;;;;;;5.17;4.80;;;18.90;33.10;;;;;;5034939;28;20210;-77
2022/12/15 08:22:10;;;;;;;4.73;4.53;;;18.90;33.00;;;;;;4995376;28;21971;-77
2022/12/15 08:24:36;;;;;;;5.07;4.67;;;18.90;33.10;;;;;;5000242;28;20274;-77
2022/12/15 08:27:02;;;;;;;4.80;4.40;;;18.90;33.10;;;;;;4997472;28;20842;-77
2022/12/15 08:29:27;;;;;;;4.90;4.60;;;18.90;33.10;;;;;;4996337;28;20216;-77
2022/12/15 08:31:53;;;;;;;5.00;4.70;;;18.90;33.00;;;;;;4999424;28;20280;-76
2022/12/15 08:34:19;;;;;;;5.47;5.07;;;18.90;33.00;;;;;;5000257;28;20219;-77
2022/12/15 08:36:45;;;;;;;4.73;4.43;;;18.90;33.10;;;;;;4998836;28;20235;-77
2022/12/15 08:39:11;;;;;;;4.77;4.50;;;18.90;33.10;;;;;;4999469;28;20458;-76
2022/12/15 08:41:36;;;;;;;5.13;4.80;;;18.90;33.10;;;;;;4998220;28;20289;-76
2022/12/15 08:44:02;;;;;;;4.93;4.63;;;18.90;33.10;;;;;;4998347;28;20231;-76
2022/12/15 08:46:32;;;;;;;5.47;5.07;;;18.90;33.20;;;;;;4999180;28;20272;-76
2022/12/15 08:48:59;;;;;;;4.57;4.27;;;18.90;33.20;;;;;;5000644;28;20998;-76
2022/12/15 08:51:27;;;;;;;5.20;4.80;;;18.90;33.10;;;;;;4999974;28;20472;-76
2022/12/15 08:53:54;;;;;;;5.20;4.80;;;18.90;33.10;;;;;;5013528;28;20484;-76
2022/12/15 08:56:21;;;;;;;4.67;4.40;;;18.90;33.10;;;;;;4997082;28;20635;-76
2022/12/15 08:58:48;;;;;;;4.57;4.37;;;18.90;33.10;;;;;;4997629;28;20945;-76
2022/12/15 09:01:21;;;;;;;4.93;4.63;;;18.90;33.10;;;;;;4997267;28;21003;-76
2022/12/15 09:03:47;;;;;;;4.63;4.43;;;18.90;33.10;;;;;;4996000;28;20596;-76
2022/12/15 09:06:28;;;;;;;5.20;4.70;;;18.90;33.10;;;;;;5000050;28;20477;-76
2022/12/15 09:08:55;;;;;;;4.67;4.47;;;18.90;33.10;;;;;;4980668;28;20883;-76
2022/12/15 09:11:22;;;;;;;4.40;4.20;;;18.90;33.10;;;;;;5006769;28;20443;-76
2022/12/15 09:13:48;;;;;;;5.33;5.03;;;18.90;33.20;;;;;;4995458;28;20983;-76
2022/12/15 09:16:15;;;;;;;4.47;4.17;;;18.90;33.10;;;;;;4992461;28;22970;-76
2022/12/15 09:18:46;;;;;;;4.90;4.60;;;18.90;33.10;;;;;;4993853;28;20231;-76
2022/12/15 09:21:14;;;;;;;4.90;4.50;;;18.90;33.10;;;;;;4988668;28;20455;-73
2022/12/15 09:23:40;;;;;;;5.63;5.23;;;18.90;33.10;;;;;;4993418;28;20452;-75
2022/12/15 09:26:11;;;;;;;5.63;5.23;;;18.90;33.10;;;;;;4994898;28;20447;-76
2022/12/15 09:28:38;;;;;;;6.03;5.63;;;18.90;33.20;;;;;;5013236;28;20444;-76
2022/12/15 09:31:03;;;;;;;5.67;5.30;;;18.90;33.20;;;;;;4996488;28;20450;-76
2022/12/15 09:33:29;;;;;;;5.70;5.30;;;18.90;33.20;;;;;;5000325;28;20469;-75
2022/12/15 09:35:54;;;;;;;5.60;5.10;;;18.90;33.10;;;;;;4997696;28;20274;-76
2022/12/15 09:38:20;;;;;;;5.30;4.90;;;18.90;33.20;;;;;;4997579;28;20242;-74
2022/12/15 09:40:46;;;;;;;5.23;4.83;;;18.90;33.20;;;;;;4997157;28;20234;-75
2022/12/15 09:43:20;;;;;;;5.50;5.20;;;18.90;33.30;;;;;;4994916;28;20236;-75
2022/12/15 09:45:50;;;;;;;4.97;4.67;;;18.90;33.30;;;;;;4997782;28;20231;-75
2022/12/15 09:48:20;;;;;;;5.53;5.23;;;18.90;33.20;;;;;;5005544;28;20466;-75
2022/12/15 09:50:47;;;;;;;5.67;4.60;;;18.90;33.40;;;;;;4998437;28;20460;-75
2022/12/15 09:53:16;;;;;;;4.43;4.23;;;18.90;33.30;;;;;;4998064;28;21178;-74
2022/12/15 09:55:47;;;;;;;5.30;5.00;;;18.90;33.30;;;;;;5001778;28;20436;-75
2022/12/15 09:58:39;;;;;;;5.10;4.80;;;18.90;33.30;;;;;;4997434;28;20456;-76
2022/12/15 10:01:25;;;;;;;4.60;4.30;;;18.90;33.30;;;;;;4997457;28;20428;-76
2022/12/15 10:04:12;;;;;;;5.60;5.20;;;18.90;33.30;;;;;;4995525;28;20462;-76
2022/12/15 10:07:18;;;;;;;4.90;4.60;;;18.90;33.30;;;;;;4996026;28;20428;-75
2022/12/15 10:09:43;;;;;;;5.83;5.43;;;18.90;33.30;;;;;;4997913;28;20435;-76
2022/12/15 10:12:23;;;;;;;5.33;4.93;;;18.90;33.30;;;;;;4995447;28;20460;-75
2022/12/15 10:15:04;;;;;;;6.03;5.63;;;18.90;33.30;;;;;;5003685;28;20669;-74
2022/12/15 10:17:59;;;;;;;5.10;4.80;;;18.90;33.20;;;;;;5001129;28;20506;-75
2022/12/15 10:20:27;;;;;;;5.40;5.10;;;18.90;33.20;;;;;;5008302;28;20442;-75
2022/12/15 10:23:14;;;;;;;5.80;5.40;;;18.90;33.30;;;;;;5037849;28;20433;-75
2022/12/15 10:25:47;;;;;;;5.07;4.77;;;18.90;33.20;;;;;;5038898;28;20413;-75
2022/12/15 10:28:26;;;;;;;5.73;5.30;;;18.90;33.30;;;;;;5041455;28;20418;-76
2022/12/15 10:30:58;;;;;;;5.33;4.93;;;18.90;33.20;;;;;;5039525;28;20421;-76
2022/12/15 10:33:27;;;;;;;4.90;4.60;;;18.90;33.30;;;;;;5034224;28;20425;-75
2022/12/15 10:35:53;;;;;;;4.93;4.53;;;18.90;33.20;;;;;;5020551;28;20475;-76
2022/12/15 10:38:22;;;;;;;5.23;4.83;;;18.90;33.20;;;;;;5022707;28;20450;-75
2022/12/15 10:40:52;;;;;;;5.17;4.77;;;18.90;33.20;;;;;;5035718;28;20478;-75
2022/12/15 10:43:25;;;;;;;5.50;5.10;;;18.90;33.20;;;;;;5037707;28;20573;-75
2022/12/15 10:46:00;;;;;;;4.93;4.63;;;18.90;33.10;;;;;;5038973;28;21138;-76
2022/12/15 10:48:26;;;;;;;5.53;5.23;;;18.90;33.10;;;;;;5021111;28;20466;-76
2022/12/15 10:51:12;;;;;;;5.17;4.77;;;18.90;33.10;;;;;;5038652;28;20487;-76
2022/12/15 10:53:44;;;;;;;6.03;4.47;;;18.90;33.10;;;;;;5024690;28;20209;-76
2022/12/15 10:56:27;;;;;;;4.90;4.70;;;18.90;33.20;;;;;;5021163;28;21160;-76
2022/12/15 10:58:55;;;;;;;4.70;4.40;;;18.90;33.10;;;;;;5019441;28;20928;-76
2022/12/15 11:01:26;;;;;;;4.97;4.77;;;18.90;33.10;;;;;;5037909;28;20547;-74
2022/12/15 11:03:53;;;;;;;4.80;4.50;;;18.90;33.20;;;;;;5042468;28;20437;-74
2022/12/15 11:06:22;;;;;;;5.30;4.90;;;18.90;33.10;;;;;;5023548;28;20455;-76
2022/12/15 11:08:51;;;;;;;4.87;4.60;;;18.90;33.10;;;;;;5039574;28;20441;-77
2022/12/15 11:14:22;;;;;;;5.40;5.00;;;18.90;33.20;;;;;;5033363;28;20441;-78
2022/12/15 11:16:51;;;;;;;4.77;4.47;;;18.90;33.20;;;;;;5018421;28;21484;-77
2022/12/15 11:19:37;;;;;;;4.73;4.53;;;18.90;33.20;;;;;;5032840;28;20425;-78
2022/12/15 11:22:11;;;;;;;5.40;5.10;;;18.90;33.20;;;;;;5030039;28;20434;-78
2022/12/15 11:24:52;;;;;;;5.60;5.20;;;18.90;33.20;;;;;;5010731;28;20437;-78
2022/12/15 11:27:39;;;;;;;4.90;4.57;;;18.90;33.20;;;;;;5032327;28;20504;-78
2022/12/15 11:30:19;;;;;;;5.93;5.43;;;18.90;33.10;;;;;;5018818;28;20490;-78
2022/12/15 11:32:49;;;;;;;5.30;5.00;;;18.90;33.10;;;;;;5032629;28;20581;-78
2022/12/15 11:35:19;;;;;;;5.33;4.97;;;18.90;33.20;;;;;;5023802;28;20444;-78
2022/12/15 11:37:50;;;;;;;4.97;4.67;;;18.90;33.20;;;;;;5018342;28;20780;-77
2022/12/15 11:40:23;;;;;;;5.10;4.80;;;18.90;33.20;;;;;;5021658;28;20440;-78
2022/12/15 11:43:11;;;;;;;5.27;4.97;;;18.90;33.20;;;;;;5035087;28;20862;-78
2022/12/15 11:45:53;;;;;;;4.87;4.50;;;18.90;33.20;;;;;;5013324;28;20434;-78
2022/12/15 11:48:26;;;;;;;4.87;4.47;;;18.90;33.10;;;;;;5020298;28;20990;-78
2022/12/15 11:51:00;;;;;;;5.20;4.90;;;18.90;33.10;;;;;;5038064;28;20473;-79
2022/12/15 11:53:47;;;;;;;5.07;4.77;;;18.90;33.10;;;;;;5020180;28;20521;-78
2022/12/15 11:56:34;;;;;;;5.47;5.17;;;18.90;33.00;;;;;;5016033;28;20434;-76
2022/12/15 11:59:09;;;;;;;5.57;5.17;;;18.90;33.00;;;;;;5030743;28;21023;-77
2022/12/15 12:01:59;;;;;;;5.17;4.87;;;18.90;33.10;;;;;;5033143;28;20445;-78
2022/12/15 12:04:38;;;;;;;4.70;4.40;;;18.90;33.00;;;;;;5016752;28;20979;-78
2022/12/15 12:07:14;;;;;;;4.97;4.67;;;18.90;33.10;;;;;;5035643;28;20453;-77
2022/12/15 12:10:03;;;;;;;5.17;4.87;;;18.90;33.10;;;;;;5018822;28;20440;-78
2022/12/15 12:12:32;;;;;;;4.60;4.30;;;18.90;33.10;;;;;;5022054;28;21171;-77
2022/12/15 12:15:21;;;;;;;5.10;4.70;;;18.90;33.00;;;;;;5029850;28;20529;-77
2022/12/15 12:17:58;;;;;;;5.93;5.60;;;18.90;33.10;;;;;;5015353;28;20494;-77
2022/12/15 12:20:55;;;;;;;5.30;5.00;;;18.90;33.00;;;;;;5015661;28;20992;-77
2022/12/15 12:23:30;;;;;;;4.57;4.37;;;18.90;33.00;;;;;;5026622;28;21575;-78
2022/12/15 12:26:27;;;;;;;4.93;4.63;;;18.90;33.10;;;;;;5010357;28;20470;-77
2022/12/15 12:29:13;;;;;;;5.03;4.70;;;18.90;33.00;;;;;;5017329;28;20436;-77
2022/12/15 12:32:01;;;;;;;4.90;4.60;;;18.90;33.10;;;;;;5016664;28;20456;-77
2022/12/15 12:35:00;;;;;;;4.90;4.60;;;18.90;33.00;;;;;;5024072;28;20455;-77
2022/12/15 12:37:58;;;;;;;5.30;4.90;;;18.90;33.00;;;;;;5029156;28;21787;-78
2022/12/15 12:40:34;;;;;;;5.97;5.60;;;18.90;33.00;;;;;;5029133;28;20959;-77
2022/12/15 12:43:02;;;;;;;4.93;4.67;;;18.90;33.00;;;;;;5035316;28;20867;-77
2022/12/15 12:45:33;;;;;;;5.13;4.83;;;18.90;33.00;;;;;;5031221;28;20455;-77
2022/12/15 12:48:07;;;;;;;4.80;4.60;;;18.90;33.00;;;;;;5034505;28;21031;-77
2022/12/15 12:50:34;;;;;;;5.47;5.10;;;18.90;33.50;;;;;;5031810;28;20432;-77
2022/12/15 12:53:02;;;;;;;5.40;5.10;;;18.90;32.90;;;;;;5005748;28;20514;-77
2022/12/15 12:55:41;;;;;;;5.30;4.10;;;18.90;32.80;;;;;;5030833;28;20452;-77
2022/12/15 12:58:32;;;;;;;5.00;4.70;;;18.90;32.90;;;;;;5030575;28;20458;-77
2022/12/15 13:01:18;;;;;;;4.47;4.27;;;19.00;32.90;;;;;;5032691;28;20441;-77
2022/12/15 13:03:45;;;;;;;5.17;4.93;;;19.00;33.00;;;;;;5013949;28;21009;-77
2022/12/15 13:06:35;;;;;;;5.10;4.80;;;18.90;33.60;;;;;;5013559;28;20438;-78
2022/12/15 13:09:15;;;;;;;5.30;4.93;;;18.90;32.80;;;;;;5027897;28;20974;-77
2022/12/15 13:11:55;;;;;;;4.60;4.30;;;18.90;32.80;;;;;;5033336;28;20583;-77
2022/12/15 13:14:32;;;;;;;5.90;5.50;;;18.90;32.90;;;;;;5034046;28;20490;-76
2022/12/15 13:17:13;;;;;;;4.77;4.47;;;19.00;32.90;;;;;;5036600;28;20478;-76
2022/12/15 13:19:57;;;;;;;4.23;4.00;;;19.00;32.90;;;;;;5036832;28;20444;-76
2022/12/15 13:22:34;;;;;;;4.73;4.43;;;18.90;32.90;;;;;;5020837;28;20467;-76
2022/12/15 13:25:01;;;;;;;5.03;4.73;;;18.90;32.80;;;;;;5037451;28;20979;-76
2022/12/15 13:27:39;;;;;;;5.23;4.93;;;18.90;32.80;;;;;;5034895;28;21064;-75
2022/12/15 13:30:07;;;;;;;4.80;4.40;;;19.00;32.90;;;;;;5037468;28;20820;-76
2022/12/15 13:32:45;;;;;;;4.63;4.33;;;19.00;33.10;;;;;;5038140;28;20924;-78
2022/12/15 13:35:13;;;;;;;5.40;5.10;;;19.00;32.90;;;;;;5036589;28;20939;-76
2022/12/15 13:37:55;;;;;;;4.60;4.33;;;19.00;32.90;;;;;;5035995;28;20450;-75
2022/12/15 13:40:34;;;;;;;4.93;4.63;;;19.00;32.80;;;;;;5033055;28;20452;-73
2022/12/15 13:42:59;;;;;;;4.83;4.53;;;19.00;32.90;;;;;;5017181;28;20455;-75
2022/12/15 13:45:47;;;;;;;5.13;4.90;;;19.00;32.80;;;;;;5037721;28;20465;-77
2022/12/15 13:48:31;;;;;;;3.83;3.63;;;19.00;32.90;;;;;;5037509;28;20317;-75
2022/12/15 13:51:03;;;;;;;4.30;4.10;;;19.00;32.80;;;;;;5037488;28;20952;-75
2022/12/15 13:53:39;;;;;;;4.97;4.67;;;19.00;32.80;;;;;;5036432;28;21045;-74
2022/12/15 13:56:10;;;;;;;4.70;4.40;;;19.00;32.80;;;;;;5037132;28;20440;-76
2022/12/15 13:58:45;;;;;;;4.70;4.50;;;19.00;32.80;;;;;;5017329;28;20997;-75
2022/12/15 14:01:20;;;;;;;4.40;4.10;;;19.00;32.80;;;;;;5034635;28;20458;-76
2022/12/15 14:04:11;;;;;;;4.40;4.20;;;19.00;32.80;;;;;;5035924;28;20943;-75
2022/12/15 14:06:47;;;;;;;4.53;4.23;;;19.00;32.80;;;;;;5031208;28;20452;-75
2022/12/15 14:09:15;;;;;;;4.07;3.70;;;19.00;32.80;;;;;;5014946;28;21130;-76
2022/12/15 14:11:43;;;;;;;4.93;4.63;;;19.00;32.80;;;;;;5033248;28;20463;-75
2022/12/15 14:14:18;;;;;;;7.23;4.43;;;19.00;32.80;;;;;;5038303;28;20972;-74
2022/12/15 14:16:45;;;;;;;7.50;4.27;;;19.00;32.80;;;;;;5038280;28;20448;-74
2022/12/15 14:19:16;;;;;;;4.80;4.57;;;19.00;32.80;;;;;;5038137;28;20448;-75
2022/12/15 14:21:56;;;;;;;7.10;4.70;;;19.00;32.80;;;;;;5031730;28;20473;-74
2022/12/15 14:24:31;;;;;;;4.90;4.50;;;19.00;32.80;;;;;;5034798;28;20437;-74
2022/12/15 14:26:57;;;;;;;4.53;4.23;;;19.10;32.80;;;;;;5035065;28;20489;-74
2022/12/15 14:29:23;;;;;;;4.33;4.03;;;19.00;32.80;;;;;;5019557;28;20530;-75
2022/12/15 14:31:59;;;;;;;4.50;4.30;;;19.10;32.80;;;;;;5035255;28;20349;-74
2022/12/15 14:34:38;;;;;;;4.50;4.10;;;19.10;32.80;;;;;;5032169;28;20462;-73
2022/12/15 14:37:13;;;;;;;4.40;4.00;;;19.10;32.90;;;;;;5031817;28;20455;-74
2022/12/15 14:39:47;;;;;;;4.63;4.33;;;19.10;32.80;;;;;;5020456;28;20487;-77
2022/12/15 14:42:23;;;;;;;4.60;4.30;;;19.20;33.00;;;;;;5025798;28;20433;-73
2022/12/15 14:44:50;;;;;;;4.83;4.53;;;19.20;32.90;;;;;;5032140;28;20973;-74
2022/12/15 14:47:25;;;;;;;3.90;3.70;;;19.20;32.90;;;;;;5029032;28;20521;-76
2022/12/15 14:49:52;;;;;;;4.70;4.30;;;19.20;32.90;;;;;;5035829;28;20454;-77
2022/12/15 14:52:37;;;;;;;4.17;3.97;;;19.20;33.00;;;;;;5010395;28;20470;-77
2022/12/15 14:55:39;;;;;;;5.30;4.90;;;19.20;32.90;;;;;;5032657;28;20432;-77
2022/12/15 14:58:23;;;;;;;4.10;3.90;;;19.20;33.00;;;;;;5032557;28;20437;-76
2022/12/15 15:00:51;;;;;;;4.83;4.53;;;19.20;32.90;;;;;;5014620;28;20419;-76
2022/12/15 15:03:21;;;;;;;4.93;4.47;;;19.20;32.90;;;;;;5036577;28;20425;-76
2022/12/15 15:05:50;;;;;;;4.27;4.07;;;19.20;32.90;;;;;;5038173;28;20471;-76
2022/12/15 15:08:32;;;;;;;5.10;4.70;;;19.20;32.90;;;;;;5036207;28;21004;-76
2022/12/15 15:11:18;;;;;;;4.53;4.23;;;19.20;33.00;;;;;;5017556;28;20445;-76
2022/12/15 15:13:44;;;;;;;4.53;4.33;;;19.10;32.80;;;;;;5038472;28;20447;-76
2022/12/15 15:16:16;;;;;;;4.87;4.57;;;19.10;32.90;;;;;;5022416;28;20433;-76
2022/12/15 15:18:42;;;;;;;5.27;4.97;;;19.10;32.90;;;;;;5020761;28;21010;-75
2022/12/15 15:21:16;;;;;;;4.70;4.47;;;19.10;32.80;;;;;;5039057;28;20437;-75
2022/12/15 15:23:57;;;;;;;4.87;4.57;;;19.20;32.90;;;;;;5031495;28;20301;-76
2022/12/15 15:26:24;;;;;;;4.40;4.20;;;19.10;32.80;;;;;;5016841;28;22216;-73
2022/12/15 15:28:50;;;;;;;5.27;4.80;;;19.10;32.80;;;;;;5034451;28;20414;-70
2022/12/15 15:31:33;;;;;;;4.77;4.50;;;19.20;33.00;;;;;;5032316;28;21092;-75
2022/12/15 15:33:58;;;;;;;4.60;4.30;;;19.10;33.00;;;;;;5036375;28;20225;-74